Terminal Aerodrome Forecast
Issued by NWS Cleveland, OH

Home | Current Version | Previous Version | Graphics & Text | Print | Product List | Glossary On
Versions: 1 2 3 4 5 6 7 8 9 10 11 12 13 14 15 16 17 18 19
000
FTUS41 KCLE 281126
TAFMFD
TAF
KMFD 281126Z 2812/2912 30012G20KT 3SM -RA BR OVC004
     FM281500 32015G25KT P6SM OVC007
     FM281800 31012G20KT P6SM OVC015
     FM282000 31012KT P6SM SCT050
     FM290300 VRB04KT P6SM SKC=

USA.gov is the U.S. government's official web portal to all federal, state and local government web resources and services.